Terminal Aerodrome Forecast
Issued by NWS

Home | Current Version | Previous Version | Graphics & Text | Print | Product List | Glossary On
Versions: 1 2 3 4 5 6 7 8 9 10 11 12 13
000
FTUS43 KICT 181635 AAA
TAFCNU
TAF AMD
KCNU 181635Z 1817/1912 34022G30KT P6SM -RA SCT030 BKN045
     FM181900 33025G30KT P6SM BKN080
     FM182200 33017G22KT P6SM SKC
     FM190500 32005KT P6SM SKC=

USA.gov is the U.S. government's official web portal to all federal, state and local government web resources and services.